createdAt,value
2019-05-05T00:02:06.061Z,4.70
2019-05-05T00:04:55.187Z,4.70
2019-05-05T00:07:28.996Z,4.70
2019-05-05T00:09:59.470Z,4.60
2019-05-05T00:12:48.601Z,4.60
2019-05-05T00:15:36.665Z,4.60
2019-05-05T00:18:07.021Z,4.50
2019-05-05T00:20:37.252Z,4.50
2019-05-05T00:23:07.460Z,4.50
2019-05-05T00:25:37.750Z,4.50
2019-05-05T00:28:07.939Z,4.40
2019-05-05T00:30:38.245Z,4.40
2019-05-05T00:33:08.469Z,4.40
2019-05-05T00:35:38.664Z,4.40
2019-05-05T00:38:08.847Z,4.30
2019-05-05T00:40:39.016Z,4.30
2019-05-05T00:43:09.313Z,4.30
2019-05-05T00:45:41.475Z,4.30
2019-05-05T00:48:17.275Z,4.30
2019-05-05T00:50:47.556Z,4.30
2019-05-05T00:53:17.814Z,4.30
2019-05-05T00:55:48.051Z,4.30
2019-05-05T00:58:18.336Z,4.30
2019-05-05T01:00:57.816Z,4.30
2019-05-05T01:03:28.586Z,4.30
2019-05-05T01:06:16.781Z,4.30
2019-05-05T01:08:47.201Z,4.30
2019-05-05T01:11:18.138Z,4.30
2019-05-05T01:13:48.482Z,4.20
2019-05-05T01:16:18.812Z,4.20
2019-05-05T01:18:49.131Z,4.20
2019-05-05T01:21:19.394Z,4.20
2019-05-05T01:23:49.667Z,4.20
2019-05-05T01:26:19.993Z,4.20
2019-05-05T01:28:50.285Z,4.20
2019-05-05T01:31:21.452Z,4.20
2019-05-05T01:34:15.493Z,4.20
2019-05-05T01:36:47.100Z,4.20
2019-05-05T01:39:51.388Z,4.10
2019-05-05T01:42:21.756Z,4.10
2019-05-05T01:44:51.999Z,4.10
2019-05-05T01:47:22.428Z,4.10
2019-05-05T01:49:54.443Z,4.10
2019-05-05T01:52:25.544Z,4.10
2019-05-05T01:54:55.887Z,4.10
2019-05-05T01:57:26.486Z,4.10
2019-05-05T01:59:57.549Z,4.10
2019-05-05T02:02:27.819Z,4.10
2019-05-05T02:04:58.137Z,4.10
2019-05-05T02:07:28.431Z,4.10
2019-05-05T02:10:00.870Z,4.10
2019-05-05T02:12:31.475Z,4.10
2019-05-05T02:15:01.781Z,4.10
2019-05-05T02:17:32.014Z,4.10
2019-05-05T02:20:02.280Z,4.10
2019-05-05T02:22:32.543Z,4.10
2019-05-05T02:25:04.253Z,4.10
2019-05-05T02:27:34.628Z,4.10
2019-05-05T02:30:30.718Z,4.10
2019-05-05T02:33:06.474Z,4.10
2019-05-05T02:35:36.849Z,4.10
2019-05-05T02:38:07.139Z,4.10
2019-05-05T02:40:38.155Z,4.10
2019-05-05T02:43:09.032Z,4.10
2019-05-05T02:46:05.496Z,4.10
2019-05-05T02:48:36.921Z,4.10
2019-05-05T02:51:08.121Z,4.10
2019-05-05T02:53:44.714Z,4.10
2019-05-05T02:56:23.651Z,4.10
2019-05-05T02:58:57.763Z,4.10
2019-05-05T03:01:36.768Z,4.10
2019-05-05T03:04:08.931Z,4.10
2019-05-05T03:06:44.005Z,4.10
2019-05-05T03:09:16.184Z,4.00
2019-05-05T03:11:49.720Z,4.00
2019-05-05T03:14:23.802Z,4.00
2019-05-05T03:16:55.034Z,4.00
2019-05-05T03:19:26.635Z,4.00
2019-05-05T03:21:57.342Z,4.00
2019-05-05T03:24:28.048Z,4.00
2019-05-05T03:26:58.878Z,4.00
2019-05-05T03:29:29.531Z,3.90
2019-05-05T03:32:00.264Z,3.90
2019-05-05T03:34:31.398Z,3.90
2019-05-05T03:37:04.222Z,3.90
2019-05-05T03:39:35.068Z,3.90
2019-05-05T03:42:40.122Z,3.90
2019-05-05T03:45:23.370Z,3.90
2019-05-05T03:47:54.169Z,3.90
2019-05-05T03:50:24.541Z,3.80
2019-05-05T03:52:55.041Z,3.80
2019-05-05T03:55:25.602Z,3.90
2019-05-05T03:57:56.514Z,3.80
2019-05-05T04:01:11.014Z,3.80
2019-05-05T04:03:43.446Z,3.80
2019-05-05T04:06:14.643Z,3.80
2019-05-05T04:08:45.941Z,3.80
2019-05-05T04:11:16.229Z,3.80
2019-05-05T04:13:46.523Z,3.80
2019-05-05T04:16:23.720Z,3.80
2019-05-05T04:18:58.208Z,3.80
2019-05-05T04:21:33.541Z,3.80
2019-05-05T04:24:00.509Z,3.80
2019-05-05T04:26:30.832Z,3.80
2019-05-05T04:29:03.213Z,3.80
2019-05-05T04:31:34.541Z,3.80
2019-05-05T04:34:04.950Z,3.80
2019-05-05T04:36:35.204Z,3.80
2019-05-05T04:39:07.184Z,3.80
2019-05-05T04:41:37.476Z,3.80
2019-05-05T04:44:07.756Z,3.90
2019-05-05T04:46:38.050Z,3.80
2019-05-05T04:49:23.991Z,3.90
2019-05-05T04:51:55.505Z,3.90
2019-05-05T04:54:40.722Z,3.90
2019-05-05T04:57:12.015Z,3.90
2019-05-05T04:59:44.340Z,3.90
2019-05-05T05:02:34.354Z,4.00
2019-05-05T05:05:09.873Z,4.00
2019-05-05T05:07:43.807Z,4.00
2019-05-05T05:10:13.965Z,4.00
2019-05-05T05:12:45.133Z,4.00
2019-05-05T05:15:16.369Z,4.00
2019-05-05T05:17:55.984Z,4.10
2019-05-05T05:20:26.309Z,4.10
2019-05-05T05:22:56.613Z,4.10
2019-05-05T05:25:26.847Z,4.10
2019-05-05T05:27:57.068Z,4.20
2019-05-05T05:30:27.439Z,4.20
2019-05-05T05:32:57.716Z,4.20
2019-05-05T05:35:28.026Z,4.20
2019-05-05T05:37:58.345Z,4.30
2019-05-05T05:40:44.398Z,4.30
2019-05-05T05:43:19.059Z,4.30
2019-05-05T05:46:09.752Z,4.40
2019-05-05T05:48:47.092Z,4.40
2019-05-05T05:51:19.750Z,4.40
2019-05-05T05:53:50.006Z,4.50
2019-05-05T05:56:20.259Z,4.50
2019-05-05T05:58:50.567Z,4.50
2019-05-05T06:01:20.890Z,4.60
2019-05-05T06:03:51.119Z,4.60
2019-05-05T06:06:23.997Z,4.60
2019-05-05T06:08:54.434Z,4.60
2019-05-05T06:11:25.114Z,4.70
2019-05-05T06:13:55.881Z,4.70
2019-05-05T06:16:26.173Z,4.70
2019-05-05T06:18:56.511Z,4.80
2019-05-05T06:21:26.798Z,4.80
2019-05-05T06:23:57.076Z,4.90
2019-05-05T06:26:27.346Z,4.90
2019-05-05T06:28:57.613Z,4.90
2019-05-05T06:31:27.889Z,5.00
2019-05-05T06:33:58.188Z,5.00
2019-05-05T06:36:28.381Z,5.10
2019-05-05T06:38:58.672Z,5.10
2019-05-05T06:41:44.018Z,5.10
2019-05-05T06:44:36.961Z,5.20
2019-05-05T06:47:13.490Z,5.20
2019-05-05T06:49:45.040Z,5.20
2019-05-05T06:52:15.315Z,5.20
2019-05-05T06:54:45.595Z,5.30
2019-05-05T06:57:15.921Z,5.30
2019-05-05T06:59:46.282Z,5.30
2019-05-05T07:02:16.616Z,5.40
2019-05-05T07:04:46.878Z,5.40
2019-05-05T07:07:17.216Z,5.40
2019-05-05T07:09:47.501Z,5.40
2019-05-05T07:12:19.549Z,5.50
2019-05-05T07:14:49.859Z,5.50
2019-05-05T07:17:20.423Z,5.60
2019-05-05T07:19:50.814Z,5.60
2019-05-05T07:22:21.214Z,5.70
2019-05-05T07:24:51.445Z,5.70
2019-05-05T07:27:21.719Z,5.80
2019-05-05T07:29:54.021Z,5.80
2019-05-05T07:32:24.658Z,5.90
2019-05-05T07:35:08.708Z,5.90
2019-05-05T07:37:38.927Z,5.90
2019-05-05T07:40:10.289Z,5.90
2019-05-05T07:42:40.730Z,5.90
2019-05-05T07:45:20.299Z,6.00
2019-05-05T07:47:43.849Z,6.00
2019-05-05T07:50:28.635Z,6.00
2019-05-05T07:52:46.627Z,6.10
2019-05-05T07:55:16.938Z,6.10
2019-05-05T07:57:47.211Z,6.10
2019-05-05T08:00:19.614Z,6.20
2019-05-05T08:02:50.008Z,6.20
2019-05-05T08:05:20.294Z,6.30
2019-05-05T08:07:50.626Z,6.30
2019-05-05T08:10:20.860Z,6.40
2019-05-05T08:12:51.296Z,6.50
2019-05-05T08:15:24.720Z,6.50
2019-05-05T08:18:04.598Z,6.60
2019-05-05T08:20:38.010Z,6.70
2019-05-05T08:23:28.006Z,6.80
2019-05-05T08:25:50.079Z,6.90
2019-05-05T08:28:37.855Z,7.00
2019-05-05T08:31:33.924Z,7.10
2019-05-05T08:34:04.252Z,7.20
2019-05-05T08:36:34.529Z,7.40
2019-05-05T08:39:06.165Z,7.50
2019-05-05T08:41:36.438Z,7.60
2019-05-05T08:44:06.682Z,7.60
2019-05-05T08:46:38.096Z,7.80
2019-05-05T08:49:08.365Z,7.90
2019-05-05T08:51:38.647Z,8.00
2019-05-05T08:54:08.943Z,8.00
2019-05-05T08:56:39.242Z,8.10
2019-05-05T08:59:09.489Z,8.20
2019-05-05T09:01:39.860Z,8.20
2019-05-05T09:04:10.213Z,8.30
2019-05-05T09:06:43.557Z,8.30
2019-05-05T09:09:14.471Z,8.40
2019-05-05T09:11:45.762Z,8.50
2019-05-05T09:14:16.316Z,8.50
2019-05-05T09:16:46.758Z,8.70
2019-05-05T09:19:19.414Z,8.80
2019-05-05T09:21:49.839Z,9.00
2019-05-05T09:24:34.721Z,9.20
2019-05-05T09:27:14.615Z,9.30
2019-05-05T09:29:44.992Z,9.50
2019-05-05T09:32:15.267Z,9.70
2019-05-05T09:34:45.594Z,10.00
2019-05-05T09:37:16.566Z,10.10
2019-05-05T09:39:47.606Z,10.20
2019-05-05T09:42:18.069Z,10.30
2019-05-05T09:44:48.569Z,10.40
2019-05-05T09:47:18.900Z,10.60
2019-05-05T09:49:49.216Z,10.60
2019-05-05T09:52:19.504Z,10.50
2019-05-05T09:54:50.041Z,10.40
2019-05-05T09:57:20.354Z,10.20
2019-05-05T09:59:50.815Z,10.10
2019-05-05T10:02:21.211Z,9.90
2019-05-05T10:04:54.813Z,9.80
2019-05-05T10:07:25.115Z,9.70
2019-05-05T10:09:55.484Z,9.60
2019-05-05T10:12:25.849Z,9.60
2019-05-05T10:14:59.364Z,9.50
2019-05-05T10:17:33.642Z,9.50
2019-05-05T10:20:05.884Z,9.50
2019-05-05T10:22:36.171Z,9.50
2019-05-05T10:25:24.210Z,9.50
2019-05-05T10:27:55.148Z,9.60
2019-05-05T10:30:26.537Z,9.60
2019-05-05T10:32:57.132Z,9.60
2019-05-05T10:35:27.444Z,9.60
2019-05-05T10:37:59.814Z,9.60
2019-05-05T10:40:34.147Z,9.60
2019-05-05T10:43:05.125Z,9.70
2019-05-05T10:45:35.486Z,9.70
2019-05-05T10:48:05.774Z,9.80
2019-05-05T10:50:36.151Z,9.80
2019-05-05T10:53:06.430Z,9.90
2019-05-05T10:55:36.759Z,10.00
2019-05-05T10:58:07.055Z,10.00
2019-05-05T11:00:56.294Z,10.10
2019-05-05T11:03:26.590Z,10.10
2019-05-05T11:05:57.205Z,10.20
2019-05-05T11:08:31.233Z,10.30
2019-05-05T11:11:01.664Z,10.30
2019-05-05T11:13:46.856Z,10.30
2019-05-05T11:16:17.155Z,10.30
2019-05-05T11:18:48.277Z,10.20
2019-05-05T11:21:18.590Z,10.20
2019-05-05T11:23:48.874Z,10.10
2019-05-05T11:26:19.294Z,10.10
2019-05-05T11:28:50.814Z,10.20
2019-05-05T11:31:21.156Z,10.20
2019-05-05T11:33:56.452Z,10.30
2019-05-05T11:36:44.758Z,10.30
2019-05-05T11:39:15.075Z,10.40
2019-05-05T11:41:45.483Z,10.50
2019-05-05T11:44:15.834Z,10.50
2019-05-05T11:46:49.177Z,10.70
2019-05-05T11:49:20.991Z,10.80
2019-05-05T11:51:51.564Z,11.00
2019-05-05T11:54:24.617Z,11.20
2019-05-05T11:57:08.685Z,11.50
2019-05-05T11:59:41.815Z,11.60
2019-05-05T12:02:14.082Z,11.90
2019-05-05T12:04:44.159Z,12.00
2019-05-05T12:07:14.715Z,12.10
2019-05-05T12:09:54.742Z,12.20
2019-05-05T12:12:24.586Z,12.30
2019-05-05T12:14:55.649Z,12.40
2019-05-05T12:17:35.636Z,12.40
2019-05-05T12:20:10.905Z,12.40
2019-05-05T12:22:41.330Z,12.50
2019-05-05T12:25:29.224Z,12.50
2019-05-05T12:28:06.825Z,12.60
2019-05-05T12:30:37.195Z,12.50
2019-05-05T12:33:07.512Z,12.50
2019-05-05T12:35:38.391Z,12.50
2019-05-05T12:38:08.638Z,12.40
2019-05-05T12:40:38.933Z,12.40
2019-05-05T12:43:19.263Z,12.40
2019-05-05T12:45:54.634Z,12.50
2019-05-05T12:48:30.308Z,12.50
2019-05-05T12:51:00.567Z,12.50
2019-05-05T12:53:33.302Z,12.50
2019-05-05T12:56:04.127Z,12.50
2019-05-05T12:58:34.586Z,12.50
2019-05-05T13:01:14.539Z,12.50
2019-05-05T13:03:45.042Z,12.50
2019-05-05T13:06:15.608Z,12.30
2019-05-05T13:08:46.054Z,12.20
2019-05-05T13:11:16.676Z,12.00
2019-05-05T13:13:47.108Z,11.80
2019-05-05T13:16:17.543Z,11.70
2019-05-05T13:18:48.004Z,11.60
2019-05-05T13:21:55.543Z,11.40
2019-05-05T13:24:47.836Z,11.30
2019-05-05T13:27:24.684Z,11.30
2019-05-05T13:29:54.627Z,11.20
2019-05-05T13:32:26.583Z,11.30
2019-05-05T13:34:56.918Z,11.20
2019-05-05T13:37:27.189Z,11.30
2019-05-05T13:39:57.525Z,11.30
2019-05-05T13:42:27.852Z,11.40
2019-05-05T13:45:03.932Z,11.50
2019-05-05T13:47:34.595Z,11.60
2019-05-05T13:50:30.606Z,11.70
2019-05-05T13:53:03.801Z,11.80
2019-05-05T13:55:34.695Z,11.90
2019-05-05T13:58:04.968Z,12.10
2019-05-05T14:00:35.175Z,12.20
2019-05-05T14:03:06.386Z,12.30
2019-05-05T14:05:36.629Z,12.40
2019-05-05T14:08:06.917Z,12.60
2019-05-05T14:10:37.149Z,12.70
2019-05-05T14:13:10.366Z,12.70
2019-05-05T14:15:39.980Z,12.80
2019-05-05T14:18:10.221Z,12.80
2019-05-05T14:20:40.526Z,12.80
2019-05-05T14:23:10.907Z,12.70
2019-05-05T14:25:41.533Z,12.70
2019-05-05T14:28:11.735Z,12.60
2019-05-05T14:30:56.762Z,12.60
2019-05-05T14:33:30.405Z,12.70
2019-05-05T14:36:19.561Z,12.60
2019-05-05T14:38:53.935Z,12.60
2019-05-05T14:41:24.307Z,12.70
2019-05-05T14:43:56.482Z,12.70
2019-05-05T14:46:26.655Z,12.70
2019-05-05T14:48:56.881Z,12.80
2019-05-05T14:51:27.255Z,12.80
2019-05-05T14:53:57.494Z,12.80
2019-05-05T14:56:36.114Z,12.80
2019-05-05T14:59:00.017Z,12.80
2019-05-05T15:01:30.560Z,12.70
2019-05-05T15:04:00.795Z,12.60
2019-05-05T15:06:47.432Z,12.50
2019-05-05T15:09:37.020Z,12.40
2019-05-05T15:12:24.951Z,12.30
2019-05-05T15:14:55.224Z,12.20
2019-05-05T15:17:25.779Z,12.20
2019-05-05T15:19:56.233Z,12.10
2019-05-05T15:22:26.439Z,12.00
2019-05-05T15:24:56.697Z,11.90
2019-05-05T15:27:26.902Z,11.80
2019-05-05T15:29:57.221Z,11.80
2019-05-05T15:32:29.753Z,11.70
2019-05-05T15:35:00.520Z,11.70
2019-05-05T15:37:30.903Z,11.70
2019-05-05T15:40:01.293Z,11.70
2019-05-05T15:42:33.485Z,11.60
2019-05-05T15:45:04.222Z,11.70
2019-05-05T15:47:34.513Z,11.70
2019-05-05T15:50:05.468Z,11.70
2019-05-05T15:56:15.842Z,11.70
2019-05-05T15:58:59.621Z,11.70
2019-05-05T16:04:13.972Z,11.60
2019-05-05T16:08:57.212Z,11.60
2019-05-05T16:15:45.424Z,11.60
2019-05-05T16:18:21.191Z,11.60
2019-05-05T16:20:57.137Z,11.60
2019-05-05T16:23:31.148Z,11.60
2019-05-05T16:26:03.574Z,11.60
2019-05-05T16:28:34.338Z,11.60
2019-05-05T16:31:05.442Z,11.60
2019-05-05T16:33:35.667Z,11.60
2019-05-05T16:36:06.338Z,11.50
2019-05-05T16:38:36.694Z,11.50
2019-05-05T16:41:06.923Z,11.40
2019-05-05T16:43:37.026Z,11.30
2019-05-05T16:46:07.226Z,11.30
2019-05-05T16:48:37.391Z,11.20
2019-05-05T16:51:09.214Z,11.20
2019-05-05T16:53:39.415Z,11.20
2019-05-05T16:56:13.985Z,11.20
2019-05-05T16:58:45.103Z,11.10
2019-05-05T17:01:16.460Z,11.10
2019-05-05T17:03:46.681Z,11.10
2019-05-05T17:06:16.873Z,11.00
2019-05-05T17:08:46.946Z,11.00
2019-05-05T17:11:17.047Z,11.00
2019-05-05T17:14:00.420Z,10.90
2019-05-05T17:16:49.580Z,10.90
2019-05-05T17:19:47.707Z,10.80
2019-05-05T17:22:22.521Z,10.80
2019-05-05T17:24:53.513Z,10.70
2019-05-05T17:27:23.775Z,10.70
2019-05-05T17:29:53.752Z,10.70
2019-05-05T17:32:24.910Z,10.70
2019-05-05T17:34:55.149Z,10.70
2019-05-05T17:37:25.320Z,10.70
2019-05-05T17:40:04.217Z,10.80
2019-05-05T17:42:45.953Z,10.70
2019-05-05T17:45:44.490Z,10.80
2019-05-05T17:48:39.459Z,10.70
2019-05-05T17:51:15.695Z,10.70
2019-05-05T17:54:03.709Z,10.70
2019-05-05T17:56:33.765Z,10.70
2019-05-05T17:59:04.187Z,10.70
2019-05-05T18:01:34.359Z,10.60
2019-05-05T18:04:04.591Z,10.60
2019-05-05T18:06:44.045Z,10.60
2019-05-05T18:09:18.094Z,10.60
2019-05-05T18:12:06.085Z,10.50
2019-05-05T18:14:36.693Z,10.50
2019-05-05T18:17:06.784Z,10.40
2019-05-05T18:19:36.735Z,10.40
2019-05-05T18:22:06.748Z,10.30
2019-05-05T18:24:36.799Z,10.30
2019-05-05T18:27:06.950Z,10.30
2019-05-05T18:29:37.073Z,10.20
2019-05-05T18:32:07.296Z,10.20
2019-05-05T18:34:37.452Z,10.10
2019-05-05T18:37:07.619Z,10.10
2019-05-05T18:39:37.671Z,10.10
2019-05-05T18:42:17.171Z,10.00
2019-05-05T18:44:49.568Z,9.90
2019-05-05T18:47:21.387Z,9.90
2019-05-05T18:49:53.828Z,9.80
2019-05-05T18:52:24.526Z,9.80
2019-05-05T18:54:54.888Z,9.70
2019-05-05T18:57:25.141Z,9.60
2019-05-05T18:59:55.336Z,9.60
2019-05-05T19:02:59.822Z,9.50
2019-05-05T19:05:58.151Z,9.50
2019-05-05T19:08:31.596Z,9.40
2019-05-05T19:11:03.601Z,9.40
2019-05-05T19:13:34.115Z,9.40
2019-05-05T19:16:04.554Z,9.30
2019-05-05T19:18:34.627Z,9.30
2019-05-05T19:21:10.369Z,9.30
2019-05-05T19:23:40.479Z,9.20
2019-05-05T19:26:10.662Z,9.20
2019-05-05T19:28:44.525Z,9.10
2019-05-05T19:31:14.000Z,9.10
2019-05-05T19:33:44.249Z,9.00
2019-05-05T19:36:14.362Z,9.00
2019-05-05T19:38:44.760Z,9.00
2019-05-05T19:41:15.097Z,8.90
2019-05-05T19:43:55.129Z,8.90
2019-05-05T19:46:45.715Z,8.90
2019-05-05T19:49:17.135Z,8.80
2019-05-05T19:51:48.207Z,8.80
2019-05-05T19:54:20.677Z,8.70
2019-05-05T19:56:50.897Z,8.70
2019-05-05T19:59:21.207Z,8.70
2019-05-05T20:01:53.837Z,8.70
2019-05-05T20:04:24.175Z,8.70
2019-05-05T20:06:54.929Z,8.70
2019-05-05T20:09:25.246Z,8.70
2019-05-05T20:11:57.910Z,8.60
2019-05-05T20:14:28.108Z,8.60
2019-05-05T20:17:04.298Z,8.60
2019-05-05T20:19:38.946Z,8.60
2019-05-05T20:22:09.251Z,8.60
2019-05-05T20:24:39.510Z,8.60
2019-05-05T20:27:09.683Z,8.60
2019-05-05T20:29:39.792Z,8.50
2019-05-05T20:32:09.880Z,8.50
2019-05-05T20:35:04.752Z,8.50
2019-05-05T20:37:50.570Z,8.50
2019-05-05T20:40:24.426Z,8.50
2019-05-05T20:42:54.680Z,8.50
2019-05-05T20:45:27.401Z,8.50
2019-05-05T20:47:57.571Z,8.40
2019-05-05T20:50:27.718Z,8.40
2019-05-05T20:52:59.821Z,8.40
2019-05-05T20:55:29.832Z,8.40
2019-05-05T20:58:00.017Z,8.40
2019-05-05T21:00:30.187Z,8.40
2019-05-05T21:03:00.398Z,8.30
2019-05-05T21:05:30.528Z,8.30
2019-05-05T21:08:00.711Z,8.30
2019-05-05T21:10:30.723Z,8.30
2019-05-05T21:13:00.808Z,8.30
2019-05-05T21:15:30.899Z,8.30
2019-05-05T21:18:00.939Z,8.20
2019-05-05T21:20:31.141Z,8.20
2019-05-05T21:23:10.334Z,8.20
2019-05-05T21:25:44.778Z,8.20
2019-05-05T21:28:14.809Z,8.20
2019-05-05T21:30:44.883Z,8.10
2019-05-05T21:33:14.991Z,8.10
2019-05-05T21:35:45.066Z,8.10
2019-05-05T21:38:15.008Z,8.10
2019-05-05T21:40:45.099Z,8.10
2019-05-05T21:43:15.470Z,8.10
2019-05-05T21:45:45.653Z,8.00
2019-05-05T21:48:15.826Z,8.00
2019-05-05T21:50:55.993Z,8.00
2019-05-05T21:53:34.266Z,7.90
2019-05-05T21:56:24.659Z,7.90
2019-05-05T21:58:54.583Z,7.90
2019-05-05T22:01:27.139Z,7.90
2019-05-05T22:03:56.848Z,7.90
2019-05-05T22:06:27.029Z,7.90
2019-05-05T22:08:56.975Z,7.90
2019-05-05T22:11:26.977Z,7.90
2019-05-05T22:13:57.057Z,7.80
2019-05-05T22:16:27.214Z,7.80
2019-05-05T22:18:57.360Z,7.80
2019-05-05T22:21:40.968Z,7.80
2019-05-05T22:24:18.921Z,7.80
2019-05-05T22:26:49.025Z,7.80
2019-05-05T22:29:19.243Z,7.70
2019-05-05T22:31:49.464Z,7.80
2019-05-05T22:34:19.634Z,7.70
2019-05-05T22:36:49.778Z,7.70
2019-05-05T22:39:19.861Z,7.70
2019-05-05T22:41:50.008Z,7.70
2019-05-05T22:44:20.143Z,7.70
2019-05-05T22:46:50.384Z,7.60
2019-05-05T22:49:20.579Z,7.60
2019-05-05T22:51:50.599Z,7.60
2019-05-05T22:54:20.775Z,7.60
2019-05-05T22:56:50.922Z,7.50
2019-05-05T22:59:23.648Z,7.50
2019-05-05T23:01:54.163Z,7.50
2019-05-05T23:04:36.607Z,7.40
2019-05-05T23:07:16.352Z,7.40
2019-05-05T23:09:46.464Z,7.40
2019-05-05T23:12:16.610Z,7.30
2019-05-05T23:14:46.703Z,7.30
2019-05-05T23:17:44.979Z,7.30
2019-05-05T23:20:57.369Z,7.30
2019-05-05T23:23:46.269Z,7.20
2019-05-05T23:26:18.296Z,7.20
2019-05-05T23:28:48.292Z,7.20
2019-05-05T23:31:18.328Z,7.10
2019-05-05T23:33:48.465Z,7.10
2019-05-05T23:36:18.468Z,7.10
2019-05-05T23:38:48.551Z,7.10
2019-05-05T23:41:18.642Z,7.00
2019-05-05T23:43:48.733Z,7.00
2019-05-05T23:46:18.900Z,7.00
2019-05-05T23:48:48.959Z,7.00
2019-05-05T23:51:19.049Z,6.90
2019-05-05T23:53:49.222Z,6.90
2019-05-05T23:56:19.322Z,6.90
2019-05-05T23:58:49.429Z,6.80
